sensor_id;sensor_type;location;lat;lon;timestamp;P1;durP1;ratioP1;P2;durP2;ratioP2
18473;SDS011;30265;52.408;13.500;2022-09-14T00:04:47;10.60;;;5.13;;
18473;SDS011;30265;52.408;13.500;2022-09-14T00:15:11;9.75;;;5.68;;
18473;SDS011;30265;52.408;13.500;2022-09-14T00:25:34;8.02;;;5.28;;
18473;SDS011;30265;52.408;13.500;2022-09-14T00:36:01;13.52;;;5.82;;
18473;SDS011;30265;52.408;13.500;2022-09-14T00:46:25;8.98;;;5.28;;
18473;SDS011;30265;52.408;13.500;2022-09-14T00:56:47;10.70;;;4.85;;
18473;SDS011;30265;52.408;13.500;2022-09-14T01:07:12;9.23;;;5.00;;
18473;SDS011;30265;52.408;13.500;2022-09-14T01:17:36;8.18;;;4.30;;
18473;SDS011;30265;52.408;13.500;2022-09-14T01:28:00;8.70;;;4.15;;
18473;SDS011;30265;52.408;13.500;2022-09-14T01:38:26;13.25;;;4.93;;
18473;SDS011;30265;52.408;13.500;2022-09-14T01:48:52;5.82;;;4.30;;
18473;SDS011;30265;52.408;13.500;2022-09-14T01:59:15;7.95;;;4.00;;
18473;SDS011;30265;52.408;13.500;2022-09-14T02:09:39;7.45;;;4.18;;
18473;SDS011;30265;52.408;13.500;2022-09-14T02:20:02;16.40;;;4.40;;
18473;SDS011;30265;52.408;13.500;2022-09-14T02:30:25;8.88;;;4.60;;
18473;SDS011;30265;52.408;13.500;2022-09-14T02:40:50;13.23;;;5.30;;
18473;SDS011;30265;52.408;13.500;2022-09-14T02:51:16;10.10;;;4.45;;
18473;SDS011;30265;52.408;13.500;2022-09-14T03:01:40;9.23;;;5.05;;
18473;SDS011;30265;52.408;13.500;2022-09-14T03:12:03;17.52;;;5.15;;
18473;SDS011;30265;52.408;13.500;2022-09-14T03:22:24;11.52;;;5.35;;
18473;SDS011;30265;52.408;13.500;2022-09-14T03:32:48;13.85;;;5.55;;
18473;SDS011;30265;52.408;13.500;2022-09-14T03:43:09;11.70;;;4.90;;
18473;SDS011;30265;52.408;13.500;2022-09-14T03:53:33;13.32;;;4.65;;
18473;SDS011;30265;52.408;13.500;2022-09-14T04:03:55;17.05;;;5.05;;
18473;SDS011;30265;52.408;13.500;2022-09-14T04:14:18;11.73;;;5.65;;
18473;SDS011;30265;52.408;13.500;2022-09-14T04:24:40;10.05;;;5.18;;
18473;SDS011;30265;52.408;13.500;2022-09-14T04:35:03;14.75;;;5.97;;
18473;SDS011;30265;52.408;13.500;2022-09-14T04:45:25;10.10;;;5.50;;
18473;SDS011;30265;52.408;13.500;2022-09-14T04:55:47;15.93;;;5.72;;
18473;SDS011;30265;52.408;13.500;2022-09-14T05:06:10;11.45;;;5.88;;
18473;SDS011;30265;52.408;13.500;2022-09-14T05:16:33;12.38;;;5.72;;
18473;SDS011;30265;52.408;13.500;2022-09-14T05:26:54;9.70;;;5.65;;
18473;SDS011;30265;52.408;13.500;2022-09-14T05:37:22;14.13;;;5.72;;
18473;SDS011;30265;52.408;13.500;2022-09-14T05:47:44;15.40;;;6.70;;
18473;SDS011;30265;52.408;13.500;2022-09-14T05:58:06;12.70;;;6.03;;
18473;SDS011;30265;52.408;13.500;2022-09-14T06:08:29;10.52;;;6.38;;
18473;SDS011;30265;52.408;13.500;2022-09-14T06:18:52;12.48;;;6.40;;
18473;SDS011;30265;52.408;13.500;2022-09-14T06:29:14;11.50;;;6.03;;
18473;SDS011;30265;52.408;13.500;2022-09-14T06:39:36;11.80;;;5.72;;
18473;SDS011;30265;52.408;13.500;2022-09-14T06:49:58;14.75;;;5.22;;
18473;SDS011;30265;52.408;13.500;2022-09-14T07:00:21;10.23;;;5.93;;
18473;SDS011;30265;52.408;13.500;2022-09-14T07:10:42;8.13;;;4.68;;
18473;SDS011;30265;52.408;13.500;2022-09-14T07:21:06;11.18;;;4.35;;
18473;SDS011;30265;52.408;13.500;2022-09-14T07:31:28;14.25;;;5.03;;
18473;SDS011;30265;52.408;13.500;2022-09-14T07:41:52;25.27;;;5.03;;
18473;SDS011;30265;52.408;13.500;2022-09-14T07:52:13;12.60;;;4.93;;
18473;SDS011;30265;52.408;13.500;2022-09-14T08:02:35;15.00;;;3.63;;
18473;SDS011;30265;52.408;13.500;2022-09-14T08:12:57;6.43;;;3.33;;
18473;SDS011;30265;52.408;13.500;2022-09-14T08:23:20;24.00;;;3.75;;
18473;SDS011;30265;52.408;13.500;2022-09-14T08:33:42;13.93;;;3.70;;
18473;SDS011;30265;52.408;13.500;2022-09-14T08:44:09;6.78;;;2.63;;
18473;SDS011;30265;52.408;13.500;2022-09-14T08:54:33;6.88;;;1.80;;
18473;SDS011;30265;52.408;13.500;2022-09-14T09:04:58;10.57;;;2.20;;
18473;SDS011;30265;52.408;13.500;2022-09-14T09:15:24;6.30;;;1.60;;
18473;SDS011;30265;52.408;13.500;2022-09-14T09:25:52;11.27;;;2.22;;
18473;SDS011;30265;52.408;13.500;2022-09-14T09:36:14;9.02;;;1.90;;
18473;SDS011;30265;52.408;13.500;2022-09-14T09:46:38;9.05;;;1.73;;
18473;SDS011;30265;52.408;13.500;2022-09-14T09:57:01;7.07;;;1.80;;
18473;SDS011;30265;52.408;13.500;2022-09-14T10:07:24;6.88;;;1.80;;
18473;SDS011;30265;52.408;13.500;2022-09-14T10:17:52;11.95;;;2.30;;
18473;SDS011;30265;52.408;13.500;2022-09-14T10:28:24;12.15;;;2.58;;
18473;SDS011;30265;52.408;13.500;2022-09-14T10:38:47;6.68;;;1.67;;
18473;SDS011;30265;52.408;13.500;2022-09-14T10:49:15;10.50;;;2.30;;
18473;SDS011;30265;52.408;13.500;2022-09-14T10:59:41;6.35;;;1.50;;
18473;SDS011;30265;52.408;13.500;2022-09-14T11:10:07;8.77;;;2.58;;
18473;SDS011;30265;52.408;13.500;2022-09-14T11:20:34;6.80;;;1.85;;
18473;SDS011;30265;52.408;13.500;2022-09-14T11:31:05;6.85;;;1.95;;
18473;SDS011;30265;52.408;13.500;2022-09-14T11:41:31;5.70;;;1.63;;
18473;SDS011;30265;52.408;13.500;2022-09-14T11:51:55;4.63;;;1.85;;
18473;SDS011;30265;52.408;13.500;2022-09-14T12:23:32;6.03;;;2.00;;
18473;SDS011;30265;52.408;13.500;2022-09-14T12:34:03;4.37;;;1.63;;
18473;SDS011;30265;52.408;13.500;2022-09-14T12:44:44;4.05;;;1.40;;
18473;SDS011;30265;52.408;13.500;2022-09-14T12:55:13;6.72;;;1.63;;
18473;SDS011;30265;52.408;13.500;2022-09-14T13:05:57;10.93;;;2.05;;
18473;SDS011;30265;52.408;13.500;2022-09-14T13:16:22;7.95;;;1.85;;
18473;SDS011;30265;52.408;13.500;2022-09-14T13:26:53;16.40;;;2.10;;
18473;SDS011;30265;52.408;13.500;2022-09-14T13:37:16;9.98;;;2.00;;
18473;SDS011;30265;52.408;13.500;2022-09-14T13:47:40;5.63;;;1.90;;
18473;SDS011;30265;52.408;13.500;2022-09-14T13:58:05;6.47;;;2.03;;
18473;SDS011;30265;52.408;13.500;2022-09-14T14:08:35;8.93;;;1.95;;
18473;SDS011;30265;52.408;13.500;2022-09-14T14:18:58;3.15;;;1.98;;
18473;SDS011;30265;52.408;13.500;2022-09-14T14:29:21;11.93;;;3.53;;
18473;SDS011;30265;52.408;13.500;2022-09-14T14:39:43;14.38;;;2.20;;
18473;SDS011;30265;52.408;13.500;2022-09-14T14:50:13;12.43;;;2.50;;
18473;SDS011;30265;52.408;13.500;2022-09-14T15:00:35;8.32;;;2.28;;
18473;SDS011;30265;52.408;13.500;2022-09-14T15:10:59;8.00;;;2.28;;
18473;SDS011;30265;52.408;13.500;2022-09-14T15:21:20;15.20;;;2.63;;
18473;SDS011;30265;52.408;13.500;2022-09-14T15:31:44;10.00;;;2.83;;
18473;SDS011;30265;52.408;13.500;2022-09-14T15:42:05;11.43;;;2.72;;
18473;SDS011;30265;52.408;13.500;2022-09-14T15:52:29;10.57;;;2.70;;
18473;SDS011;30265;52.408;13.500;2022-09-14T16:02:51;8.93;;;3.15;;
18473;SDS011;30265;52.408;13.500;2022-09-14T16:13:14;7.53;;;2.83;;
18473;SDS011;30265;52.408;13.500;2022-09-14T16:23:38;6.53;;;2.28;;
18473;SDS011;30265;52.408;13.500;2022-09-14T16:34:06;12.63;;;3.20;;
18473;SDS011;30265;52.408;13.500;2022-09-14T16:44:29;8.30;;;2.60;;
18473;SDS011;30265;52.408;13.500;2022-09-14T16:54:52;9.30;;;2.47;;
18473;SDS011;30265;52.408;13.500;2022-09-14T17:05:15;14.30;;;2.90;;
18473;SDS011;30265;52.408;13.500;2022-09-14T17:15:38;12.50;;;2.92;;
18473;SDS011;30265;52.408;13.500;2022-09-14T17:26:01;5.70;;;2.60;;
18473;SDS011;30265;52.408;13.500;2022-09-14T17:36:26;12.40;;;3.33;;
18473;SDS011;30265;52.408;13.500;2022-09-14T17:46:48;15.75;;;3.20;;
18473;SDS011;30265;52.408;13.500;2022-09-14T17:57:20;10.90;;;3.17;;
18473;SDS011;30265;52.408;13.500;2022-09-14T18:07:42;11.88;;;3.30;;
18473;SDS011;30265;52.408;13.500;2022-09-14T18:18:05;9.43;;;3.20;;
18473;SDS011;30265;52.408;13.500;2022-09-14T18:28:27;14.75;;;3.88;;
18473;SDS011;30265;52.408;13.500;2022-09-14T18:38:50;19.00;;;4.63;;
18473;SDS011;30265;52.408;13.500;2022-09-14T18:49:12;11.77;;;4.03;;
18473;SDS011;30265;52.408;13.500;2022-09-14T18:59:36;17.33;;;6.15;;
18473;SDS011;30265;52.408;13.500;2022-09-14T19:09:57;16.05;;;4.63;;
18473;SDS011;30265;52.408;13.500;2022-09-14T19:20:20;19.13;;;5.30;;
18473;SDS011;30265;52.408;13.500;2022-09-14T19:30:42;12.82;;;5.85;;
18473;SDS011;30265;52.408;13.500;2022-09-14T19:41:05;15.35;;;6.95;;
18473;SDS011;30265;52.408;13.500;2022-09-14T19:51:29;15.00;;;6.13;;
18473;SDS011;30265;52.408;13.500;2022-09-14T20:01:52;13.07;;;6.68;;
18473;SDS011;30265;52.408;13.500;2022-09-14T20:12:14;11.10;;;6.30;;
18473;SDS011;30265;52.408;13.500;2022-09-14T20:22:37;13.82;;;4.82;;
18473;SDS011;30265;52.408;13.500;2022-09-14T20:32:59;12.68;;;4.97;;
18473;SDS011;30265;52.408;13.500;2022-09-14T20:53:46;17.30;;;5.03;;
18473;SDS011;30265;52.408;13.500;2022-09-14T21:04:09;18.10;;;6.15;;
18473;SDS011;30265;52.408;13.500;2022-09-14T21:14:33;19.33;;;5.90;;
18473;SDS011;30265;52.408;13.500;2022-09-14T21:24:55;19.45;;;6.38;;
18473;SDS011;30265;52.408;13.500;2022-09-14T21:35:18;10.23;;;4.93;;
18473;SDS011;30265;52.408;13.500;2022-09-14T21:45:42;13.48;;;5.97;;
18473;SDS011;30265;52.408;13.500;2022-09-14T21:56:06;10.23;;;5.78;;
18473;SDS011;30265;52.408;13.500;2022-09-14T22:06:29;12.60;;;5.70;;
18473;SDS011;30265;52.408;13.500;2022-09-14T22:16:53;10.65;;;5.55;;
18473;SDS011;30265;52.408;13.500;2022-09-14T22:27:15;14.32;;;5.78;;
18473;SDS011;30265;52.408;13.500;2022-09-14T22:37:38;13.23;;;6.30;;
18473;SDS011;30265;52.408;13.500;2022-09-14T22:48:00;19.83;;;5.90;;
18473;SDS011;30265;52.408;13.500;2022-09-14T22:58:24;9.18;;;4.68;;
18473;SDS011;30265;52.408;13.500;2022-09-14T23:08:48;16.37;;;5.90;;
18473;SDS011;30265;52.408;13.500;2022-09-14T23:19:12;8.95;;;4.78;;
18473;SDS011;30265;52.408;13.500;2022-09-14T23:29:35;9.77;;;5.47;;
18473;SDS011;30265;52.408;13.500;2022-09-14T23:39:58;17.38;;;5.13;;
18473;SDS011;30265;52.408;13.500;2022-09-14T23:50:19;8.25;;;4.35;;
